Time;durP1;ratioP1;P1;durP2;ratioP2;P2;SDS_P1;SDS_P2;PMS_P1;PMS_P2;Temp;Humidity;BMP_temperature;BMP_pressure;BME280_temperature;BME280_humidity;BME280_pressure;Samples;Min_cycle;Max_cycle;Signal;HPM_P1;HPM_P2
2023/12/11 00:00:04;;;;;;;17.03;3.27;;;7.00;99.90;;;;;;5018021;28;20286;-56
2023/12/11 00:02:29;;;;;;;13.60;3.40;;;7.10;99.90;;;;;;5011199;28;20199;-54
2023/12/11 00:04:55;;;;;;;6.40;2.57;;;7.10;99.90;;;;;;5008704;28;20218;-55
2023/12/11 00:07:20;;;;;;;5.20;2.47;;;7.10;99.90;;;;;;5012306;28;20227;-54
2023/12/11 00:09:46;;;;;;;7.50;2.57;;;7.10;99.90;;;;;;5013441;28;20551;-62
2023/12/11 00:12:11;;;;;;;11.60;2.97;;;7.10;99.90;;;;;;4993346;28;20220;-61
2023/12/11 00:14:37;;;;;;;9.47;3.30;;;7.10;99.90;;;;;;4991031;28;20270;-56
2023/12/11 00:17:02;;;;;;;10.90;3.53;;;7.10;99.90;;;;;;5010508;28;20728;-55
2023/12/11 00:19:28;;;;;;;14.73;4.07;;;7.20;99.90;;;;;;5014090;28;20199;-56
2023/12/11 00:21:54;;;;;;;14.93;4.13;;;7.20;99.90;;;;;;5011546;28;20211;-56
2023/12/11 00:24:19;;;;;;;11.03;4.20;;;7.20;99.90;;;;;;4995430;28;20299;-56
2023/12/11 00:26:45;;;;;;;11.33;4.53;;;7.30;99.90;;;;;;5010794;28;20226;-57
2023/12/11 00:29:10;;;;;;;7.33;3.07;;;7.30;99.90;;;;;;4995151;28;20258;-55
2023/12/11 00:31:36;;;;;;;11.00;3.70;;;7.40;99.90;;;;;;5002515;28;20200;-55
2023/12/11 00:34:02;;;;;;;12.30;2.50;;;7.40;99.90;;;;;;5017341;28;20195;-55
2023/12/11 00:36:27;;;;;;;10.23;3.40;;;7.40;99.90;;;;;;5013233;28;20192;-62
2023/12/11 00:38:53;;;;;;;7.50;2.43;;;7.30;99.90;;;;;;4988139;28;20202;-55
2023/12/11 00:41:18;;;;;;;12.13;2.67;;;7.30;99.90;;;;;;4999776;28;20298;-56
2023/12/11 00:43:44;;;;;;;8.80;2.93;;;7.30;99.90;;;;;;5014367;28;20211;-56
2023/12/11 00:46:14;;;;;;;18.37;3.47;;;7.30;99.90;;;;;;5002341;28;20205;-54
2023/12/11 00:48:39;;;;;;;9.37;3.10;;;7.20;99.90;;;;;;4991592;28;20236;-54
2023/12/11 00:51:05;;;;;;;7.30;2.50;;;7.20;99.90;;;;;;5010167;28;20242;-53
2023/12/11 00:53:30;;;;;;;9.47;2.30;;;7.20;99.90;;;;;;5003939;28;20766;-54
2023/12/11 00:55:56;;;;;;;7.77;2.90;;;7.20;99.90;;;;;;4997755;28;20204;-54
2023/12/11 00:58:21;;;;;;;6.83;2.57;;;7.20;99.90;;;;;;5006404;28;20604;-55
2023/12/11 01:00:47;;;;;;;9.33;2.87;;;7.10;99.90;;;;;;4998447;28;20204;-55
2023/12/11 01:03:12;;;;;;;9.17;2.80;;;7.20;99.90;;;;;;5008655;28;20199;-54
2023/12/11 01:05:38;;;;;;;10.90;3.23;;;7.20;99.90;;;;;;4997461;28;20200;-53
2023/12/11 01:08:04;;;;;;;11.73;3.33;;;7.20;99.90;;;;;;4997620;28;20224;-55
2023/12/11 01:10:29;;;;;;;8.73;2.67;;;7.20;99.90;;;;;;4994630;28;20203;-64
2023/12/11 01:12:55;;;;;;;12.27;2.73;;;7.20;99.90;;;;;;4996666;28;20263;-63
2023/12/11 01:15:20;;;;;;;7.17;2.10;;;7.10;99.90;;;;;;4996578;28;20204;-62
2023/12/11 01:17:46;;;;;;;6.43;2.30;;;7.00;99.90;;;;;;5002165;28;20276;-62
2023/12/11 01:20:12;;;;;;;3.47;2.23;;;7.00;99.90;;;;;;4995574;28;20346;-63
2023/12/11 01:22:37;;;;;;;5.63;2.27;;;7.00;99.90;;;;;;4999449;28;20215;-63
2023/12/11 01:25:03;;;;;;;6.57;2.23;;;7.10;99.90;;;;;;5002686;28;20204;-54
2023/12/11 01:27:28;;;;;;;9.00;1.97;;;7.20;99.90;;;;;;4994643;28;20216;-54
2023/12/11 01:29:54;;;;;;;6.70;2.70;;;7.10;99.90;;;;;;5001806;28;20204;-55
2023/12/11 01:32:19;;;;;;;5.27;2.00;;;7.10;99.90;;;;;;4997789;28;20203;-55
2023/12/11 01:34:45;;;;;;;7.40;2.43;;;7.10;99.90;;;;;;5007684;28;20215;-56
2023/12/11 01:37:10;;;;;;;5.87;2.53;;;7.10;99.90;;;;;;4998972;28;20258;-56
2023/12/11 01:39:36;;;;;;;4.03;2.23;;;7.10;99.90;;;;;;4999543;28;20200;-55
2023/12/11 01:42:01;;;;;;;4.90;2.27;;;7.00;99.90;;;;;;5002686;28;20226;-55
2023/12/11 01:44:27;;;;;;;4.40;2.00;;;7.00;99.90;;;;;;4994118;28;20232;-54
2023/12/11 01:46:53;;;;;;;3.80;1.70;;;7.00;99.90;;;;;;4992894;28;20278;-54
2023/12/11 01:49:19;;;;;;;6.03;2.13;;;7.00;99.90;;;;;;4993739;28;20685;-54
2023/12/11 01:51:45;;;;;;;7.83;2.30;;;6.90;99.90;;;;;;5022904;28;20222;-55
2023/12/11 01:54:10;;;;;;;6.47;1.93;;;6.90;99.90;;;;;;5020815;28;20298;-53
2023/12/11 01:56:36;;;;;;;3.97;2.27;;;6.90;99.90;;;;;;5022866;28;20229;-54
2023/12/11 01:59:02;;;;;;;4.47;2.53;;;7.00;99.90;;;;;;5004462;28;20215;-55
2023/12/11 02:01:29;;;;;;;8.30;1.90;;;7.00;99.90;;;;;;5013951;28;20246;-55
2023/12/11 02:03:55;;;;;;;9.33;2.90;;;7.00;99.90;;;;;;4998714;28;20202;-54
2023/12/11 02:06:21;;;;;;;4.70;2.80;;;7.00;99.90;;;;;;5012377;28;20942;-54
2023/12/11 02:08:47;;;;;;;9.53;2.20;;;7.00;99.90;;;;;;5003019;28;20742;-54
2023/12/11 02:11:13;;;;;;;2.60;2.00;;;7.00;99.90;;;;;;5018447;28;20215;-55
2023/12/11 02:13:39;;;;;;;6.53;2.40;;;7.00;99.90;;;;;;5019292;28;20196;-54
2023/12/11 02:16:05;;;;;;;5.37;2.27;;;7.10;99.90;;;;;;5021764;28;20226;-55
2023/12/11 02:18:31;;;;;;;5.67;2.43;;;7.10;99.90;;;;;;5018981;28;20275;-55
2023/12/11 02:20:56;;;;;;;4.80;2.10;;;7.10;99.90;;;;;;5019278;28;20214;-54
2023/12/11 02:23:28;;;;;;;4.13;2.00;;;7.10;99.90;;;;;;5017449;28;20697;-55
2023/12/11 02:26:17;;;;;;;11.07;3.00;;;7.10;99.90;;;;;;5013320;28;20203;-54
2023/12/11 02:28:42;;;;;;;9.87;2.37;;;7.20;99.90;;;;;;5011614;28;20223;-55
2023/12/11 02:31:08;;;;;;;9.80;2.30;;;7.20;99.90;;;;;;5017555;28;20672;-55
2023/12/11 02:33:34;;;;;;;5.47;2.33;;;7.20;99.90;;;;;;5020888;28;20256;-54
2023/12/11 02:35:59;;;;;;;7.83;2.73;;;7.20;99.90;;;;;;5021993;28;20287;-55
2023/12/11 02:38:25;;;;;;;7.60;2.10;;;7.30;99.90;;;;;;5020532;28;20201;-54
2023/12/11 02:40:51;;;;;;;7.00;3.27;;;7.20;99.90;;;;;;5015104;28;20298;-54
2023/12/11 02:43:16;;;;;;;5.10;2.33;;;7.30;99.90;;;;;;5016144;28;20215;-54
2023/12/11 02:45:42;;;;;;;9.17;3.07;;;7.30;99.90;;;;;;5016409;28;20211;-54
2023/12/11 02:48:08;;;;;;;14.00;2.90;;;7.40;99.90;;;;;;5021810;28;20329;-53
2023/12/11 02:50:34;;;;;;;8.70;2.63;;;7.40;99.90;;;;;;5020230;28;20337;-53
2023/12/11 02:53:01;;;;;;;5.10;2.57;;;7.40;99.90;;;;;;5002617;28;20203;-53
2023/12/11 02:55:27;;;;;;;10.87;2.53;;;7.50;99.90;;;;;;5016001;28;20214;-54
2023/12/11 02:58:00;;;;;;;8.60;1.93;;;7.50;99.90;;;;;;5017055;28;20705;-53
2023/12/11 03:00:27;;;;;;;8.77;2.10;;;7.50;99.90;;;;;;5013588;28;20197;-54
2023/12/11 03:02:53;;;;;;;8.43;2.37;;;7.40;99.90;;;;;;5015147;28;20226;-53
2023/12/11 03:05:19;;;;;;;2.33;1.60;;;7.50;99.90;;;;;;5020175;28;20210;-54
2023/12/11 03:07:45;;;;;;;3.97;2.40;;;7.70;99.90;;;;;;5014533;28;20219;-54
2023/12/11 03:10:11;;;;;;;3.40;2.23;;;7.80;99.90;;;;;;5019081;28;20215;-54
2023/12/11 03:12:36;;;;;;;9.07;2.83;;;7.80;99.90;;;;;;5019262;28;20681;-53
2023/12/11 03:15:04;;;;;;;6.93;2.57;;;7.80;99.90;;;;;;5021695;28;20575;-55
2023/12/11 03:17:29;;;;;;;6.23;2.00;;;7.90;99.90;;;;;;5018273;28;20213;-54
2023/12/11 03:19:54;;;;;;;4.47;2.37;;;7.90;99.90;;;;;;5016223;28;20202;-56
2023/12/11 03:22:20;;;;;;;6.47;2.23;;;8.00;99.90;;;;;;5019292;28;20198;-55
2023/12/11 03:24:46;;;;;;;4.17;2.03;;;7.90;99.90;;;;;;5021016;28;20245;-55
2023/12/11 03:27:12;;;;;;;4.33;1.70;;;7.90;99.90;;;;;;5017186;28;20223;-56
2023/12/11 03:29:38;;;;;;;10.83;2.80;;;8.00;99.90;;;;;;5021823;28;23318;-55
2023/12/11 03:32:03;;;;;;;5.47;1.57;;;8.00;99.90;;;;;;5020956;28;20282;-54
2023/12/11 03:34:29;;;;;;;8.07;2.57;;;8.10;99.90;;;;;;5019232;28;20681;-54
2023/12/11 03:36:54;;;;;;;5.63;2.07;;;8.20;99.90;;;;;;5015921;28;20191;-54
2023/12/11 03:39:20;;;;;;;9.03;2.40;;;8.20;99.90;;;;;;5015936;28;20204;-54
2023/12/11 03:41:45;;;;;;;2.80;1.70;;;8.20;99.90;;;;;;5022130;28;20194;-54
2023/12/11 03:44:11;;;;;;;5.53;2.87;;;8.30;99.90;;;;;;5010239;28;20202;-54
2023/12/11 03:46:36;;;;;;;7.83;2.37;;;8.30;99.90;;;;;;5014383;28;20302;-54
2023/12/11 03:49:02;;;;;;;5.40;2.00;;;8.40;99.90;;;;;;5015238;28;20223;-54
2023/12/11 03:51:27;;;;;;;6.40;1.77;;;8.30;99.90;;;;;;5016546;28;20703;-55
2023/12/11 03:53:53;;;;;;;4.40;2.40;;;8.30;99.90;;;;;;5024146;28;20655;-54
2023/12/11 03:56:19;;;;;;;6.27;1.93;;;8.20;99.90;;;;;;5029139;28;20873;-55
2023/12/11 03:58:44;;;;;;;11.37;3.07;;;8.20;99.90;;;;;;5015712;28;20664;-55
2023/12/11 04:01:10;;;;;;;13.67;4.43;;;8.20;99.90;;;;;;5012947;28;20306;-56
2023/12/11 04:03:35;;;;;;;7.20;2.60;;;8.20;99.90;;;;;;5014428;28;20685;-55
2023/12/11 04:06:01;;;;;;;5.23;2.37;;;8.20;99.90;;;;;;5013050;28;20190;-56
2023/12/11 04:08:26;;;;;;;7.27;2.17;;;8.30;99.90;;;;;;5004502;28;20214;-55
2023/12/11 04:10:52;;;;;;;7.07;3.33;;;8.30;99.90;;;;;;5028740;28;20234;-55
2023/12/11 04:13:18;;;;;;;7.37;2.30;;;8.40;99.90;;;;;;5001847;28;20620;-55
2023/12/11 04:15:43;;;;;;;5.13;2.23;;;8.40;99.90;;;;;;5019559;28;20265;-56
2023/12/11 04:18:09;;;;;;;11.60;2.67;;;8.40;99.90;;;;;;5022669;28;20210;-55
2023/12/11 04:20:34;;;;;;;7.53;2.60;;;8.40;99.90;;;;;;4998874;28;20290;-55
2023/12/11 04:23:00;;;;;;;11.10;2.80;;;8.50;99.90;;;;;;5015699;28;20726;-55
2023/12/11 04:25:25;;;;;;;9.03;2.63;;;8.50;99.90;;;;;;5019993;28;20791;-56
2023/12/11 04:27:50;;;;;;;7.20;2.43;;;8.50;99.90;;;;;;5019572;28;20624;-55
2023/12/11 04:30:16;;;;;;;7.13;2.43;;;8.40;99.90;;;;;;5022172;28;20227;-56
2023/12/11 04:32:41;;;;;;;10.20;2.70;;;8.50;99.90;;;;;;5019340;28;20265;-54
2023/12/11 04:35:07;;;;;;;5.20;1.97;;;8.50;99.90;;;;;;4997217;28;20244;-54
2023/12/11 04:37:33;;;;;;;8.13;3.00;;;8.50;99.90;;;;;;5020725;28;20230;-55
2023/12/11 04:39:58;;;;;;;7.53;3.27;;;8.50;99.90;;;;;;5016841;28;20191;-55
2023/12/11 04:42:24;;;;;;;8.47;3.40;;;8.60;99.90;;;;;;5014206;28;20203;-55
2023/12/11 04:44:50;;;;;;;13.87;3.13;;;8.60;99.90;;;;;;5013537;28;20285;-55
2023/12/11 04:47:15;;;;;;;9.10;2.43;;;8.50;99.90;;;;;;5004375;28;20227;-54
2023/12/11 04:49:44;;;;;;;4.50;2.27;;;8.60;99.90;;;;;;5023918;28;20218;-55
2023/12/11 04:52:09;;;;;;;5.70;2.27;;;8.70;99.90;;;;;;5021705;28;20211;-54
2023/12/11 04:54:35;;;;;;;10.10;2.77;;;8.70;99.90;;;;;;5026642;28;20703;-55
2023/12/11 04:57:01;;;;;;;13.23;2.77;;;8.60;99.90;;;;;;5022381;28;20687;-55
2023/12/11 04:59:26;;;;;;;6.03;2.47;;;8.50;99.90;;;;;;5019997;28;20599;-55
2023/12/11 05:01:52;;;;;;;11.37;3.23;;;8.50;99.90;;;;;;5027522;28;20229;-54
2023/12/11 05:04:18;;;;;;;13.10;2.57;;;8.50;99.90;;;;;;5025675;28;20542;-55
2023/12/11 05:06:44;;;;;;;6.17;2.20;;;8.60;99.90;;;;;;5001054;28;20188;-55
2023/12/11 05:09:10;;;;;;;12.90;2.40;;;8.60;99.90;;;;;;5016295;28;20296;-56
2023/12/11 05:11:35;;;;;;;13.17;3.10;;;8.60;99.90;;;;;;5002243;28;20693;-55
2023/12/11 05:14:01;;;;;;;7.13;2.33;;;8.60;99.90;;;;;;5004839;28;20213;-55
2023/12/11 05:16:26;;;;;;;9.83;2.83;;;8.60;99.90;;;;;;5018761;28;20207;-55
2023/12/11 05:18:52;;;;;;;5.77;2.30;;;8.60;99.90;;;;;;5023868;28;20941;-55
2023/12/11 05:21:17;;;;;;;9.23;2.50;;;8.60;99.90;;;;;;5026595;28;20694;-55
2023/12/11 05:23:43;;;;;;;7.27;3.10;;;8.60;99.90;;;;;;5024038;28;20211;-55
2023/12/11 05:26:08;;;;;;;5.53;2.10;;;8.60;99.90;;;;;;5019320;28;20194;-55
2023/12/11 05:28:34;;;;;;;9.57;2.60;;;8.70;99.90;;;;;;5015614;28;20325;-55
2023/12/11 05:30:59;;;;;;;9.83;2.53;;;8.70;99.90;;;;;;5021146;28;20210;-55
2023/12/11 05:33:25;;;;;;;6.50;2.83;;;8.70;99.90;;;;;;5017271;28;20239;-55
2023/12/11 05:35:50;;;;;;;11.80;2.57;;;8.70;99.90;;;;;;4996978;28;20202;-63
2023/12/11 05:38:16;;;;;;;8.10;2.47;;;8.70;99.90;;;;;;5018600;28;20231;-55
2023/12/11 05:40:41;;;;;;;9.17;3.77;;;8.70;99.90;;;;;;5023712;28;20203;-55
2023/12/11 05:43:07;;;;;;;10.90;2.63;;;8.70;99.90;;;;;;5019770;28;20310;-54
2023/12/11 05:45:32;;;;;;;13.17;2.43;;;8.60;99.90;;;;;;5013967;28;20231;-54
2023/12/11 05:47:58;;;;;;;8.23;3.20;;;8.60;99.90;;;;;;5001281;28;20315;-56
2023/12/11 05:50:23;;;;;;;7.63;2.97;;;8.60;99.90;;;;;;4993170;28;20196;-55
2023/12/11 05:52:49;;;;;;;7.23;2.20;;;8.60;99.90;;;;;;4996903;28;20236;-54
2023/12/11 05:55:14;;;;;;;7.83;2.17;;;8.60;99.90;;;;;;4999477;28;20207;-55
2023/12/11 05:57:40;;;;;;;6.93;3.20;;;8.60;99.90;;;;;;4980776;28;20204;-55
2023/12/11 06:00:06;;;;;;;8.23;2.77;;;8.60;99.90;;;;;;4993813;28;20491;-54
2023/12/11 06:02:31;;;;;;;10.27;2.43;;;8.70;99.90;;;;;;4994914;28;20200;-58
2023/12/11 06:04:57;;;;;;;7.13;2.67;;;8.80;99.90;;;;;;4997442;28;20203;-55
2023/12/11 06:07:23;;;;;;;10.63;2.83;;;8.90;99.90;;;;;;4997745;28;20216;-56
2023/12/11 06:09:49;;;;;;;12.27;3.13;;;8.90;99.90;;;;;;4998185;28;20202;-57
2023/12/11 06:12:15;;;;;;;12.97;2.63;;;8.90;99.90;;;;;;4999427;28;20286;-60
2023/12/11 06:14:42;;;;;;;7.87;2.73;;;9.00;99.90;;;;;;4997100;28;20223;-55
2023/12/11 06:17:07;;;;;;;10.23;3.00;;;9.00;99.90;;;;;;4972081;28;20572;-55
2023/12/11 06:19:33;;;;;;;9.60;2.37;;;8.90;99.90;;;;;;4976164;28;20729;-55
2023/12/11 06:21:58;;;;;;;6.67;2.27;;;8.80;99.90;;;;;;4995128;28;21140;-57
2023/12/11 06:24:24;;;;;;;7.33;2.03;;;8.90;99.90;;;;;;4989625;28;20185;-54
2023/12/11 06:26:49;;;;;;;7.73;2.80;;;8.90;99.90;;;;;;4994370;28;20235;-55
2023/12/11 06:29:15;;;;;;;11.33;2.37;;;8.80;99.90;;;;;;4994057;28;20203;-55
2023/12/11 06:31:40;;;;;;;5.67;2.50;;;8.80;99.90;;;;;;4992550;28;20211;-54
2023/12/11 06:34:06;;;;;;;4.50;2.73;;;8.80;99.90;;;;;;4972062;28;20690;-55
2023/12/11 06:36:31;;;;;;;10.83;2.40;;;8.80;99.90;;;;;;4991557;28;20261;-56
2023/12/11 06:38:57;;;;;;;12.20;3.73;;;8.80;99.90;;;;;;4980047;28;20570;-57
2023/12/11 06:41:23;;;;;;;10.37;3.27;;;8.60;99.90;;;;;;4997461;28;20204;-56
2023/12/11 06:43:52;;;;;;;8.80;2.87;;;8.70;99.90;;;;;;4989926;28;20452;-55
2023/12/11 06:46:18;;;;;;;11.83;4.20;;;8.70;99.90;;;;;;4975705;28;20196;-55
2023/12/11 06:48:44;;;;;;;9.00;3.57;;;8.70;99.90;;;;;;5013310;28;20223;-55
2023/12/11 06:51:10;;;;;;;15.83;3.70;;;8.70;99.90;;;;;;4995860;28;20206;-55
2023/12/11 06:53:35;;;;;;;9.90;3.43;;;8.70;99.90;;;;;;5021571;28;20195;-56
2023/12/11 06:56:01;;;;;;;8.00;3.03;;;8.70;99.90;;;;;;5019790;28;20196;-56
2023/12/11 06:58:26;;;;;;;6.83;2.70;;;8.70;99.90;;;;;;5015179;28;20255;-56
2023/12/11 07:00:52;;;;;;;10.13;3.07;;;8.60;99.90;;;;;;5025809;28;20711;-56
2023/12/11 07:03:17;;;;;;;15.90;3.17;;;8.70;99.90;;;;;;5022140;28;20206;-57
2023/12/11 07:05:43;;;;;;;6.67;3.07;;;8.70;99.90;;;;;;5016369;28;20199;-56
2023/12/11 07:08:09;;;;;;;4.50;2.27;;;8.80;99.90;;;;;;5016605;28;20219;-56
2023/12/11 07:10:35;;;;;;;8.67;3.10;;;8.80;99.90;;;;;;5020293;28;20325;-56
2023/12/11 07:13:01;;;;;;;8.40;4.57;;;8.70;99.90;;;;;;5024992;28;20211;-61
2023/12/11 07:15:26;;;;;;;10.50;2.57;;;8.80;99.90;;;;;;5008076;28;20490;-55
2023/12/11 07:17:52;;;;;;;10.27;3.37;;;8.80;99.90;;;;;;5011625;28;20234;-56
2023/12/11 07:20:17;;;;;;;7.80;2.73;;;8.80;99.90;;;;;;4995879;28;20278;-55
2023/12/11 07:22:45;;;;;;;5.90;2.50;;;8.80;99.90;;;;;;5017063;28;20195;-55
2023/12/11 07:25:12;;;;;;;6.47;2.67;;;8.90;99.90;;;;;;5017437;28;20222;-56
2023/12/11 07:27:42;;;;;;;4.60;2.40;;;8.80;99.90;;;;;;5013563;28;20203;-56
2023/12/11 07:30:08;;;;;;;12.67;3.10;;;8.90;99.90;;;;;;5015534;28;20202;-55
2023/12/11 07:32:34;;;;;;;5.40;2.27;;;8.90;99.90;;;;;;5016647;28;20535;-54
2023/12/11 07:35:00;;;;;;;9.97;2.73;;;8.90;99.90;;;;;;4998536;28;20233;-55
2023/12/11 07:37:25;;;;;;;7.80;2.57;;;8.90;99.90;;;;;;5010156;28;20187;-57
2023/12/11 07:39:51;;;;;;;7.13;3.20;;;8.90;99.90;;;;;;5017961;28;20206;-56
2023/12/11 07:42:16;;;;;;;7.97;3.17;;;8.90;99.90;;;;;;5016135;28;20675;-56
2023/12/11 07:44:42;;;;;;;9.33;3.03;;;8.80;99.90;;;;;;5012807;28;20564;-57
2023/12/11 07:47:08;;;;;;;6.57;2.83;;;8.90;99.90;;;;;;5018927;28;20239;-56
2023/12/11 07:49:33;;;;;;;6.83;3.17;;;8.90;99.90;;;;;;5012007;28;20266;-55
2023/12/11 07:52:01;;;;;;;11.77;2.87;;;8.90;99.90;;;;;;5010479;28;20208;-57
2023/12/11 07:54:27;;;;;;;9.10;2.67;;;8.80;99.90;;;;;;4996540;28;20222;-54
2023/12/11 07:56:52;;;;;;;4.60;1.93;;;8.80;99.90;;;;;;5017063;28;20239;-55
2023/12/11 07:59:18;;;;;;;10.60;3.47;;;8.80;99.90;;;;;;5021672;28;20670;-56
2023/12/11 08:01:44;;;;;;;12.60;2.00;;;8.80;99.90;;;;;;5017162;28;20191;-55
2023/12/11 08:04:09;;;;;;;5.97;1.73;;;8.80;99.90;;;;;;5013364;28;20194;-55
2023/12/11 08:06:40;;;;;;;7.43;2.00;;;8.80;99.90;;;;;;5012579;28;20567;-55
2023/12/11 08:09:06;;;;;;;8.30;2.63;;;8.70;99.90;;;;;;5009361;28;20237;-54
2023/12/11 08:11:31;;;;;;;7.70;3.03;;;8.70;99.90;;;;;;5013645;28;20203;-54
2023/12/11 08:13:57;;;;;;;5.53;2.23;;;8.80;99.90;;;;;;5016468;28;20246;-55
2023/12/11 08:16:23;;;;;;;9.77;3.23;;;8.80;99.90;;;;;;5011558;28;20214;-55
2023/12/11 08:18:49;;;;;;;7.87;2.10;;;8.80;99.90;;;;;;5012413;28;20659;-54
2023/12/11 08:21:18;;;;;;;7.57;2.57;;;8.80;99.90;;;;;;5008132;28;20195;-54
2023/12/11 08:23:44;;;;;;;5.03;1.53;;;8.80;99.90;;;;;;5027053;28;20756;-55
2023/12/11 08:26:11;;;;;;;9.67;3.53;;;8.80;99.90;;;;;;5022805;28;20245;-55
2023/12/11 08:28:36;;;;;;;5.77;2.30;;;8.90;99.90;;;;;;4995556;28;20223;-55
2023/12/11 08:31:03;;;;;;;8.43;2.17;;;8.90;99.90;;;;;;5024803;28;20199;-54
2023/12/11 08:33:29;;;;;;;9.63;2.63;;;8.90;99.90;;;;;;4995933;28;20241;-54
2023/12/11 08:35:54;;;;;;;7.60;2.00;;;8.80;99.90;;;;;;5020464;28;20194;-54
2023/12/11 08:38:22;;;;;;;8.60;1.97;;;8.80;99.90;;;;;;5021173;28;20598;-54
2023/12/11 08:40:47;;;;;;;7.23;2.03;;;8.80;99.90;;;;;;5024699;28;20285;-54
2023/12/11 08:43:13;;;;;;;8.57;2.17;;;8.80;99.90;;;;;;5001177;28;20991;-54
2023/12/11 08:45:39;;;;;;;7.90;1.90;;;8.80;99.90;;;;;;5012892;28;20270;-53
2023/12/11 08:48:04;;;;;;;11.97;3.10;;;8.70;99.90;;;;;;5021885;28;20239;-54
2023/12/11 08:50:30;;;;;;;2.63;1.90;;;8.80;99.90;;;;;;5004030;28;20206;-54
2023/12/11 08:52:56;;;;;;;9.20;1.83;;;8.70;99.90;;;;;;5010985;28;20200;-54
2023/12/11 08:55:21;;;;;;;5.67;1.97;;;8.70;99.90;;;;;;5012453;28;20215;-55
2023/12/11 08:57:47;;;;;;;8.07;1.63;;;8.80;99.90;;;;;;4997046;28;20676;-55
2023/12/11 09:00:13;;;;;;;7.93;2.03;;;8.80;99.90;;;;;;5014524;28;20199;-55
2023/12/11 09:02:38;;;;;;;7.17;2.33;;;8.80;99.90;;;;;;5022041;28;21432;-55
2023/12/11 09:05:04;;;;;;;6.67;2.13;;;8.90;99.90;;;;;;5019150;28;20197;-56
2023/12/11 09:07:29;;;;;;;5.07;2.13;;;8.90;99.90;;;;;;5000454;28;20740;-56
2023/12/11 09:09:55;;;;;;;5.37;2.30;;;8.90;99.90;;;;;;5014467;28;20761;-55
2023/12/11 09:12:22;;;;;;;14.00;3.67;;;8.90;99.90;;;;;;5019077;28;20251;-56
2023/12/11 09:14:47;;;;;;;6.70;2.67;;;8.90;99.90;;;;;;5014098;28;20561;-62
2023/12/11 09:17:13;;;;;;;7.57;2.80;;;8.80;99.90;;;;;;5014844;28;20535;-55
2023/12/11 09:19:38;;;;;;;10.87;2.53;;;8.70;99.90;;;;;;5023146;28;20699;-56
2023/12/11 09:22:04;;;;;;;8.57;2.83;;;8.60;99.90;;;;;;5005759;28;20989;-54
2023/12/11 09:24:29;;;;;;;8.57;3.30;;;8.60;99.90;;;;;;5010932;28;20212;-54
2023/12/11 09:26:55;;;;;;;11.87;2.63;;;8.50;99.90;;;;;;5016236;28;20652;-54
2023/12/11 09:29:20;;;;;;;4.80;2.23;;;8.50;99.90;;;;;;5019076;28;20262;-56
2023/12/11 09:31:46;;;;;;;13.03;3.23;;;8.40;99.90;;;;;;5012963;28;20195;-56
2023/12/11 09:34:12;;;;;;;6.17;2.27;;;8.40;99.90;;;;;;5006930;28;21578;-55
2023/12/11 09:36:38;;;;;;;9.43;2.40;;;8.30;99.90;;;;;;5009778;28;20704;-55
2023/12/11 09:39:04;;;;;;;8.13;2.70;;;8.40;99.90;;;;;;5019038;28;20204;-55
2023/12/11 09:41:33;;;;;;;12.30;4.83;;;8.30;99.90;;;;;;5006544;28;20294;-69
2023/12/11 09:44:01;;;;;;;9.30;3.03;;;8.40;99.90;;;;;;5020912;28;20195;-57
2023/12/11 09:46:29;;;;;;;14.20;2.80;;;8.40;99.90;;;;;;5001206;28;20657;-56
2023/12/11 09:48:54;;;;;;;14.33;2.67;;;8.50;99.90;;;;;;5016345;28;20281;-58
2023/12/11 09:51:20;;;;;;;15.60;3.23;;;8.40;99.90;;;;;;5019578;28;20207;-63
2023/12/11 09:53:48;;;;;;;7.67;2.30;;;8.40;99.90;;;;;;4999416;28;20584;-55
2023/12/11 09:56:15;;;;;;;7.03;3.10;;;8.30;99.90;;;;;;5014503;28;20212;-56
2023/12/11 09:58:42;;;;;;;9.23;2.30;;;8.30;99.90;;;;;;5012788;28;20203;-56
2023/12/11 10:01:09;;;;;;;9.73;2.90;;;8.30;99.90;;;;;;5013273;28;20298;-55
2023/12/11 10:03:35;;;;;;;4.90;2.33;;;8.40;99.90;;;;;;4994342;28;20202;-57
2023/12/11 10:06:02;;;;;;;7.13;2.20;;;8.40;99.90;;;;;;5010989;28;20199;-56
2023/12/11 10:08:28;;;;;;;7.30;2.43;;;8.50;99.90;;;;;;5003171;28;20224;-54
2023/12/11 10:11:11;;;;;;;9.57;2.10;;;8.50;99.90;;;;;;5013126;28;20194;-55
2023/12/11 10:13:38;;;;;;;7.33;2.03;;;8.50;99.90;;;;;;5014201;28;20670;-54
2023/12/11 10:16:05;;;;;;;6.53;2.20;;;8.40;99.90;;;;;;5009994;28;20747;-55
2023/12/11 10:18:31;;;;;;;7.53;2.27;;;8.30;99.90;;;;;;5012969;28;20242;-56
2023/12/11 10:20:58;;;;;;;5.13;2.27;;;8.40;99.90;;;;;;5010357;28;21194;-56
2023/12/11 10:23:24;;;;;;;5.17;2.00;;;8.40;99.90;;;;;;4988401;28;20184;-59
2023/12/11 10:25:52;;;;;;;5.93;2.10;;;8.40;99.90;;;;;;4992709;28;20218;-56
2023/12/11 10:28:22;;;;;;;3.63;1.63;;;8.50;99.90;;;;;;5011837;28;20208;-57
2023/12/11 10:30:52;;;;;;;8.17;2.37;;;8.40;99.90;;;;;;5011586;28;20202;-55
2023/12/11 10:33:18;;;;;;;11.33;3.03;;;8.40;99.90;;;;;;5015768;28;20200;-55
2023/12/11 10:35:45;;;;;;;13.03;2.80;;;8.50;99.90;;;;;;5008677;28;20204;-55
2023/12/11 10:38:10;;;;;;;6.37;1.80;;;8.30;99.90;;;;;;4996824;28;20219;-56
2023/12/11 10:40:38;;;;;;;12.07;2.83;;;8.30;99.90;;;;;;5017636;28;20234;-55
2023/12/11 10:43:04;;;;;;;9.17;2.37;;;8.40;99.90;;;;;;5013753;28;20672;-54
2023/12/11 10:45:31;;;;;;;6.67;2.37;;;8.40;99.90;;;;;;5013226;28;20199;-55
2023/12/11 10:47:58;;;;;;;8.07;2.50;;;8.30;99.90;;;;;;5018247;28;20724;-54
2023/12/11 10:50:25;;;;;;;6.90;2.53;;;8.30;99.90;;;;;;4994687;28;20187;-55
2023/12/11 10:52:51;;;;;;;5.43;2.47;;;8.50;99.90;;;;;;4998118;28;20491;-54
2023/12/11 10:55:16;;;;;;;10.70;2.50;;;8.50;99.90;;;;;;5018957;28;20200;-63
2023/12/11 10:57:45;;;;;;;4.80;2.10;;;8.50;99.90;;;;;;5022585;28;20225;-56
2023/12/11 11:00:13;;;;;;;9.10;2.43;;;8.50;99.90;;;;;;5021475;28;20210;-65
2023/12/11 11:02:43;;;;;;;6.53;2.20;;;8.50;99.90;;;;;;4998328;28;20198;-65
2023/12/11 11:05:10;;;;;;;8.67;2.47;;;8.50;99.90;;;;;;5009619;28;20718;-61
2023/12/11 11:07:57;;;;;;;10.77;2.50;;;8.50;99.90;;;;;;5014021;28;20711;-56
2023/12/11 11:10:31;;;;;;;12.60;2.73;;;8.50;99.90;;;;;;5028505;28;20692;-56
2023/12/11 11:13:08;;;;;;;10.77;3.10;;;8.50;99.90;;;;;;5013647;28;20191;-61
2023/12/11 11:15:34;;;;;;;6.17;2.27;;;8.50;99.90;;;;;;5004026;28;20191;-56
2023/12/11 11:18:07;;;;;;;8.93;2.30;;;8.60;99.90;;;;;;4998256;28;20574;-55
2023/12/11 11:20:34;;;;;;;9.70;3.00;;;8.60;99.90;;;;;;5020998;28;20253;-54
2023/12/11 11:23:15;;;;;;;9.13;1.90;;;8.70;99.90;;;;;;5013114;28;20680;-55
2023/12/11 11:26:27;;;;;;;10.23;2.40;;;8.70;99.90;;;;;;5004088;28;20195;-60
2023/12/11 11:29:12;;;;;;;9.87;2.90;;;8.80;99.90;;;;;;5016551;28;20258;-64
2023/12/11 11:31:49;;;;;;;7.63;2.20;;;8.80;99.90;;;;;;4997983;28;20215;-64
2023/12/11 11:34:35;;;;;;;8.93;3.00;;;8.90;99.90;;;;;;5021764;28;20203;-56
2023/12/11 11:37:01;;;;;;;13.00;2.93;;;8.90;99.90;;;;;;5012312;28;20231;-56
2023/12/11 11:39:58;;;;;;;10.40;2.53;;;9.00;99.90;;;;;;4998721;28;20219;-56
2023/12/11 11:42:25;;;;;;;4.20;2.17;;;9.10;99.90;;;;;;5014283;28;20203;-56
2023/12/11 11:45:07;;;;;;;9.17;2.67;;;9.10;99.90;;;;;;4989276;28;20826;-59
2023/12/11 11:47:34;;;;;;;5.93;3.73;;;9.10;99.90;;;;;;5018772;28;20318;-59
2023/12/11 11:50:13;;;;;;;8.77;3.30;;;9.10;99.90;;;;;;5016259;28;20233;-58
2023/12/11 11:52:41;;;;;;;10.67;2.33;;;9.20;99.90;;;;;;5015457;28;20203;-57
2023/12/11 11:55:30;;;;;;;4.23;1.67;;;9.20;99.90;;;;;;5017287;28;20905;-56
2023/12/11 11:57:56;;;;;;;3.20;1.83;;;9.30;99.90;;;;;;5008952;28;20907;-56
2023/12/11 12:00:23;;;;;;;8.33;2.30;;;9.30;99.90;;;;;;5013435;28;20204;-57
2023/12/11 12:02:56;;;;;;;7.13;2.10;;;9.40;99.90;;;;;;5010281;28;20217;-56
2023/12/11 12:05:22;;;;;;;11.70;1.73;;;9.30;99.90;;;;;;4998555;28;20204;-56
2023/12/11 12:07:47;;;;;;;5.00;2.23;;;9.40;99.90;;;;;;4994828;28;20316;-57
2023/12/11 12:10:16;;;;;;;8.90;1.67;;;9.40;99.90;;;;;;5016715;28;20254;-57
2023/12/11 12:12:42;;;;;;;10.47;2.40;;;9.30;99.90;;;;;;5013918;28;20234;-65
2023/12/11 12:15:08;;;;;;;7.13;1.93;;;9.40;99.90;;;;;;5013952;28;20768;-57
2023/12/11 12:17:35;;;;;;;7.33;1.93;;;9.40;99.90;;;;;;5010664;28;20812;-57
2023/12/11 12:20:12;;;;;;;4.10;1.90;;;9.40;99.90;;;;;;5015016;28;20199;-56
2023/12/11 12:22:37;;;;;;;6.20;1.97;;;9.50;99.90;;;;;;5015273;28;20403;-56
2023/12/11 12:25:11;;;;;;;7.40;1.97;;;9.40;99.90;;;;;;5011499;28;22314;-56
2023/12/11 12:27:37;;;;;;;6.03;1.97;;;9.40;99.90;;;;;;5013673;28;20223;-55
2023/12/11 12:30:03;;;;;;;6.50;2.30;;;9.40;99.90;;;;;;5013433;28;20272;-55
2023/12/11 12:32:28;;;;;;;7.00;2.07;;;9.80;99.90;;;;;;4996975;28;20196;-56
2023/12/11 12:34:55;;;;;;;5.97;2.37;;;9.70;99.90;;;;;;5015265;28;20207;-56
2023/12/11 12:37:21;;;;;;;8.23;2.43;;;9.60;99.90;;;;;;5016656;28;20195;-56
2023/12/11 12:39:47;;;;;;;5.33;1.83;;;9.60;99.90;;;;;;5023671;28;20227;-56
2023/12/11 12:42:12;;;;;;;11.67;2.43;;;9.60;99.90;;;;;;5019961;28;20218;-56
2023/12/11 12:44:39;;;;;;;3.03;1.63;;;9.60;99.90;;;;;;5022897;28;20265;-56
2023/12/11 12:47:05;;;;;;;13.13;2.07;;;9.60;99.90;;;;;;5017200;28;20310;-68
2023/12/11 12:49:32;;;;;;;2.93;2.00;;;9.60;99.90;;;;;;4996771;28;20208;-64
2023/12/11 12:51:58;;;;;;;5.27;1.97;;;9.60;99.90;;;;;;5014484;28;20216;-56